Погода Гладкий Логна неделю

Тверская область, Россия

25 - 31 мая
  • 25мая
    Сегодня
    +10°
    +25°
    Ясно и безоблачно
    ВремяПогодаТемператураВлажностьДавлениеВетер, м/сВероятность осадков
    00:00Ясно и безоблачно+10°C53 %753 мм2.9 м/с2 %
    03:00Ясно и безоблачно+8°C59 %753 мм2.7 м/с2 %
    06:00Ясно и безоблачно+9°C62 %753 мм2.9 м/с2 %
    09:00Ясно и безоблачно+18°C51 %753 мм2.5 м/с2 %
    12:00Ясно и безоблачно+22°C41 %752 мм2.6 м/с2 %
    15:00Ясно и безоблачно+24°C40 %751 мм2.6 м/с2 %
    18:00Ясно и безоблачно+24°C43 %750 мм2.5 м/с2 %
    21:00Ясно и безоблачно+18°C66 %750 мм2.0 м/с2 %
  • 26мая
    Воскресенье
    +11°
    +26°
    Практически безоблачно
    ВремяПогодаТемператураВлажностьДавлениеВетер, м/сВероятность осадков
    00:00Ясно и безоблачно+11°C78 %750 мм2.0 м/с2 %
    03:00Ясно и безоблачно+10°C78 %750 мм2.5 м/с2 %
    06:00Ясно и безоблачно+13°C67 %750 мм2.5 м/с2 %
    09:00Ясно и безоблачно+22°C51 %750 мм2.2 м/с2 %
    12:00Небольшая облачность+24°C37 %750 мм2.6 м/с8 %
    15:00Практически безоблачно+25°C38 %750 мм3.2 м/с27 %
    18:00Небольшая облачность+23°C51 %750 мм3.6 м/с38 %
    21:00Практически безоблачно+18°C78 %750 мм1.9 м/с11 %
  • 27мая
    Понедельник
    +10°
    +25°
    Ясно и безоблачно
    ВремяПогодаТемператураВлажностьДавлениеВетер, м/сВероятность осадков
    00:00Практически безоблачно+14°C93 %750 мм2.0 м/с2 %
    03:00Ясно и безоблачно+12°C95 %751 мм2.6 м/с1 %
    06:00Ясно и безоблачно+12°C68 %752 мм2.9 м/с2 %
    09:00Ясно и безоблачно+19°C47 %752 мм2.6 м/с2 %
    12:00Ясно и безоблачно+22°C45 %751 мм2.9 м/с15 %
    15:00Ясно и безоблачно+24°C40 %751 мм2.0 м/с19 %
    18:00Практически безоблачно+24°C40 %750 мм1.4 м/с20 %
    21:00Ясно и безоблачно+19°C61 %749 мм1.8 м/с5 %
  • 28мая
    Вторник
    +11°
    +26°
    Небольшая облачность
    ВремяПогодаТемператураВлажностьДавлениеВетер, м/сВероятность осадков
    00:00Ясно и безоблачно+14°C60 %749 мм3.0 м/с2 %
    03:00Ясно и безоблачно+11°C67 %749 мм2.2 м/с2 %
    06:00Ясно и безоблачно+12°C70 %749 мм2.0 м/с2 %
    09:00Ясно и безоблачно+22°C59 %749 мм1.0 м/с2 %
    12:00Практически безоблачно+24°C45 %749 мм0.9 м/с28 %
    15:00Небольшая облачность+26°C44 %748 мм0.7 м/с41 %
    18:00Практически безоблачно+25°C47 %747 мм0.8 м/с40 %
    21:00Небольшая облачность+20°C77 %747 мм0.7 м/с16 %
  • 29мая
    Среда
    +10°
    +25°
    Небольшая облачность, возможен дождь с грозой
    ВремяПогодаТемператураВлажностьДавлениеВетер, м/сВероятность осадков
    00:00Ясно и безоблачно+15°C76 %746 мм1.1 м/с5 %
    03:00Практически безоблачно+12°C91 %746 мм1.5 м/с2 %
    06:00Практически безоблачно+13°C88 %745 мм0.7 м/с3 %
    09:00Ясно и безоблачно+22°C60 %745 мм0.3 м/с5 %
    12:00Небольшая облачность+24°C56 %745 мм0.5 м/с41 %
    15:00Небольшая облачность, возможен дождь с грозой+24°C60 %744 мм1.2 м/с46 %
    18:00Небольшая облачность, возможен дождь с грозой+24°C70 %744 мм0.8 м/с40 %
    21:00Небольшая облачность+19°C85 %743 мм1.5 м/с15 %
Мы используем cookies
Соглашаюсь